Time;durP1;ratioP1;P1;durP2;ratioP2;P2;SDS_P1;SDS_P2;PMS_P1;PMS_P2;Temp;Humidity;BMP_temperature;BMP_pressure;BME280_temperature;BME280_humidity;BME280_pressure;Samples;Min_cycle;Max_cycle;Signal;HPM_P1;HPM_P2
2019/06/29 00:00:00;;;;;;;2.3;1.9;;;;;;;33.5;26.94238;1007.228;;;;
2019/06/29 00:02:48;;;;;;;3.4;2.1;;;;;;;33.49;26.96582;1007.165;;;;
2019/06/29 00:05:16;;;;;;;3.7;2;;;;;;;33.48;26.96582;1007.149;;;;
2019/06/29 00:07:41;;;;;;;2.3;1.9;;;;;;;33.46;26.97656;1007.159;;;;
2019/06/29 00:10:27;;;;;;;4.7;2.3;;;;;;;33.47;26.97754;1007.168;;;;
2019/06/29 00:12:57;;;;;;;3.6;2.1;;;;;;;33.46;26.98926;1007.159;;;;
2019/06/29 00:13:15;;;;;;;4.6;2.1;;;;;;;33.47;26.98926;1007.18;;;;
2019/06/29 00:15:54;;;;;;;3.5;1.9;;;;;;;33.47;26.95313;1007.175;;;;
2019/06/29 00:18:34;;;;;;;3.4;2;;;;;;;33.46;26.96484;1007.19;;;;
2019/06/29 00:21:00;;;;;;;2.6;2;;;;;;;33.45;26.95215;1007.168;;;;
2019/06/29 00:23:42;;;;;;;4.7;2.1;;;;;;;33.45;26.97559;1007.116;;;;
2019/06/29 00:26:21;;;;;;;2.8;2;;;;;;;33.44;26.96289;1007.132;;;;
2019/06/29 00:28:55;;;;;;;3;1.9;;;;;;;33.44;26.96289;1007.124;;;;
2019/06/29 00:31:26;;;;;;;4.7;1.9;;;;;;;33.42;26.97461;1007.095;;;;
2019/06/29 00:34:03;;;;;;;3.3;2.1;;;;;;;33.4;26.98535;1007.017;;;;
2019/06/29 00:36:45;;;;;;;3.3;2;;;;;;;33.4;26.98633;1007.001;;;;
2019/06/29 00:39:10;;;;;;;3.9;1.8;;;;;;;33.39;26.99707;1006.985;;;;
2019/06/29 00:41:44;;;;;;;5.3;2;;;;;;;33.4;26.98633;1006.984;;;;
2019/06/29 00:44:30;;;;;;;3;2;;;;;;;33.39;27.00977;1006.942;;;;
2019/06/29 00:46:56;;;;;;;4.3;2.4;;;;;;;33.38;27.00977;1007.002;;;;
2019/06/29 00:49:39;;;;;;;3.1;2;;;;;;;33.39;26.99707;1006.965;;;;
2019/06/29 00:52:10;;;;;;;3.5;2;;;;;;;33.39;27.00977;1006.929;;;;
2019/06/29 00:54:58;;;;;;;3;1.8;;;;;;;33.37;26.99609;1006.912;;;;
2019/06/29 00:57:44;;;;;;;3.1;2;;;;;;;33.36;27.02051;1006.921;;;;
2019/06/29 01:00:18;;;;;;;3.9;2;;;;;;;33.36;27.03223;1006.935;;;;
2019/06/29 01:03:01;;;;;;;3.6;2;;;;;;;33.36;27.0332;1006.946;;;;
2019/06/29 01:05:48;;;;;;;2.5;1.9;;;;;;;33.34;27.05664;1006.912;;;;
2019/06/29 01:08:23;;;;;;;2.8;1.7;;;;;;;33.34;27.05664;1006.915;;;;
2019/06/29 01:11:13;;;;;;;3.1;1.9;;;;;;;33.34;27.05566;1006.923;;;;
2019/06/29 01:13:40;;;;;;;3.7;1.9;;;;;;;33.33;27.06738;1006.915;;;;
2019/06/29 01:16:19;;;;;;;3;1.8;;;;;;;33.32;27.08008;1006.926;;;;
2019/06/29 01:18:44;;;;;;;4.3;2.1;;;;;;;33.32;27.08008;1006.894;;;;
2019/06/29 01:21:22;;;;;;;2.9;1.9;;;;;;;33.32;27.06738;1006.86;;;;
2019/06/29 01:23:55;;;;;;;2.9;1.9;;;;;;;33.31;27.06738;1006.851;;;;
2019/06/29 01:26:22;;;;;;;4.5;2.3;;;;;;;33.31;27.06641;1006.833;;;;
2019/06/29 01:29:05;;;;;;;4;2;;;;;;;33.29;27.10254;1006.759;;;;
2019/06/29 01:31:49;;;;;;;3.6;2.2;;;;;;;33.29;27.09082;1006.762;;;;
2019/06/29 01:34:25;;;;;;;3.5;2;;;;;;;33.28;27.08984;1006.75;;;;
2019/06/29 01:37:04;;;;;;;3.7;2;;;;;;;33.28;27.08984;1006.768;;;;
2019/06/29 01:39:48;;;;;;;2.8;2.1;;;;;;;33.27;27.08887;1006.736;;;;
2019/06/29 01:42:13;;;;;;;3.4;2.1;;;;;;;33.26;27.08887;1006.717;;;;
2019/06/29 01:44:51;;;;;;;3.8;2.1;;;;;;;33.26;27.07617;1006.708;;;;
2019/06/29 01:47:39;;;;;;;4;1.8;;;;;;;33.24;27.08691;1006.668;;;;
2019/06/29 01:50:10;;;;;;;3.2;1.9;;;;;;;33.25;27.06348;1006.66;;;;
2019/06/29 01:52:37;;;;;;;3.6;1.8;;;;;;;33.24;27.05078;1006.688;;;;
2019/06/29 01:55:12;;;;;;;3.1;1.9;;;;;;;33.23;27.05078;1006.633;;;;
2019/06/29 01:58:50;;;;;;;3.7;1.9;;;;;;;33.22;27.06152;1006.615;;;;
2019/06/29 02:01:41;;;;;;;2.7;2.1;;;;;;;33.22;27.06152;1006.55;;;;
2019/06/29 02:04:11;;;;;;;2.5;1.8;;;;;;;33.21;27.04883;1006.57;;;;
2019/06/29 02:06:50;;;;;;;3.7;2.1;;;;;;;33.21;27.06152;1006.619;;;;
2019/06/29 02:09:18;;;;;;;4.8;2;;;;;;;33.22;27.03613;1006.699;;;;
2019/06/29 02:11:47;;;;;;;5.6;2.1;;;;;;;33.22;27.01172;1006.695;;;;
2019/06/29 02:14:14;;;;;;;3;2;;;;;;;33.22;27.0127;1006.649;;;;
2019/06/29 02:17:03;;;;;;;3.5;1.9;;;;;;;33.22;27;1006.643;;;;
2019/06/29 02:19:31;;;;;;;3.4;2;;;;;;;33.21;26.99902;1006.617;;;;
2019/06/29 02:22:03;;;;;;;4.3;2;;;;;;;33.2;26.98633;1006.518;;;;
2019/06/29 02:24:31;;;;;;;2.6;1.9;;;;;;;33.2;26.97461;1006.537;;;;
2019/06/29 02:27:14;;;;;;;3.3;1.6;;;;;;;33.2;26.97363;1006.483;;;;
2019/06/29 02:29:39;;;;;;;3.2;1.9;;;;;;;33.2;26.96094;1006.51;;;;
2019/06/29 02:32:05;;;;;;;4.2;2;;;;;;;33.19;26.97363;1006.466;;;;
2019/06/29 02:34:33;;;;;;;4.1;2.2;;;;;;;33.19;26.96094;1006.508;;;;
2019/06/29 02:37:10;;;;;;;3.1;1.8;;;;;;;33.19;26.93652;1006.528;;;;
2019/06/29 02:39:45;;;;;;;3.4;2.2;;;;;;;33.19;26.94824;1006.513;;;;
2019/06/29 02:42:27;;;;;;;2.9;1.9;;;;;;;33.18;26.91113;1006.471;;;;
2019/06/29 02:44:53;;;;;;;6.1;2.2;;;;;;;33.18;26.89844;1006.426;;;;
2019/06/29 02:47:25;;;;;;;4.2;2;;;;;;;33.18;26.89941;1006.436;;;;
2019/06/29 02:50:14;;;;;;;3.5;2;;;;;;;33.18;26.89941;1006.45;;;;
2019/06/29 02:52:43;;;;;;;3.2;2;;;;;;;33.18;26.86133;1006.455;;;;
2019/06/29 02:55:24;;;;;;;3.4;1.9;;;;;;;33.18;26.83789;1006.441;;;;
2019/06/29 02:57:56;;;;;;;2.1;1.9;;;;;;;33.17;26.84863;1006.403;;;;
2019/06/29 03:00:21;;;;;;;3;1.8;;;;;;;33.16;26.83594;1006.407;;;;
2019/06/29 03:03:00;;;;;;;2.6;1.9;;;;;;;33.16;26.78613;1006.472;;;;
2019/06/29 03:05:36;;;;;;;3.1;2;;;;;;;33.17;26.72559;1006.479;;;;
2019/06/29 03:08:22;;;;;;;3;2;;;;;;;33.16;26.66309;1006.432;;;;
2019/06/29 03:10:58;;;;;;;2.3;1.9;;;;;;;33.16;26.66309;1006.402;;;;
2019/06/29 03:13:24;;;;;;;2.6;2.1;;;;;;;33.13;26.64844;1006.364;;;;
2019/06/29 03:16:11;;;;;;;3.5;2;;;;;;;33.13;26.6123;1006.35;;;;
2019/06/29 03:18:40;;;;;;;3.1;2;;;;;;;33.12;26.5625;1006.313;;;;
2019/06/29 03:21:22;;;;;;;2.4;1.9;;;;;;;33.12;26.52539;1006.251;;;;
2019/06/29 03:24:03;;;;;;;3.5;2;;;;;;;33.1;26.52441;1006.295;;;;
2019/06/29 03:26:28;;;;;;;3.7;2;;;;;;;33.09;26.46191;1006.298;;;;
2019/06/29 03:29:08;;;;;;;3.5;1.9;;;;;;;33.09;26.43652;1006.311;;;;
2019/06/29 03:31:50;;;;;;;3.8;2.1;;;;;;;33.07;26.42383;1006.303;;;;
2019/06/29 03:34:21;;;;;;;3.5;2.2;;;;;;;33.05;26.41016;1006.372;;;;
2019/06/29 03:36:48;;;;;;;3.9;1.9;;;;;;;33.05;26.38574;1006.396;;;;
2019/06/29 03:39:16;;;;;;;4.9;2.1;;;;;;;33.04;26.34766;1006.381;;;;
2019/06/29 03:41:45;;;;;;;2.4;1.8;;;;;;;33.04;26.32324;1006.408;;;;
2019/06/29 03:44:15;;;;;;;3.7;2;;;;;;;33.03;26.28613;1006.401;;;;
2019/06/29 03:46:53;;;;;;;2.7;2;;;;;;;33.03;26.27344;1006.405;;;;
2019/06/29 03:49:27;;;;;;;2.9;1.8;;;;;;;33.02;26.24805;1006.398;;;;
2019/06/29 03:52:02;;;;;;;4.8;2;;;;;;;33.01;26.23535;1006.406;;;;
2019/06/29 03:54:44;;;;;;;3.1;2;;;;;;;33;26.18457;1006.425;;;;
2019/06/29 03:57:20;;;;;;;2.4;2.1;;;;;;;32.99;26.17285;1006.379;;;;
2019/06/29 03:59:57;;;;;;;3.5;1.8;;;;;;;32.98;26.11035;1006.389;;;;
2019/06/29 04:02:40;;;;;;;3.1;1.9;;;;;;;32.98;26.07324;1006.426;;;;
2019/06/29 04:05:14;;;;;;;2.8;2;;;;;;;32.97;26.06055;1006.401;;;;
2019/06/29 04:07:39;;;;;;;3.2;1.8;;;;;;;32.96;26.06055;1006.387;;;;
2019/06/29 04:10:08;;;;;;;3.2;1.9;;;;;;;32.95;26.07129;1006.368;;;;
2019/06/29 04:12:47;;;;;;;3.3;1.8;;;;;;;32.95;26.03418;1006.346;;;;
2019/06/29 04:16:12;;;;;;;3.4;1.8;;;;;;;32.95;25.99805;1006.341;;;;
2019/06/29 04:18:39;;;;;;;3.3;2;;;;;;;32.95;25.99805;1006.382;;;;
2019/06/29 04:21:17;;;;;;;2.4;1.9;;;;;;;32.94;25.95996;1006.349;;;;
2019/06/29 04:25:05;;;;;;;2.7;1.9;;;;;;;32.93;25.94727;1006.31;;;;
2019/06/29 04:27:38;;;;;;;3.9;1.8;;;;;;;32.92;25.92188;1006.294;;;;
2019/06/29 04:30:03;;;;;;;3.2;1.8;;;;;;;32.92;25.90918;1006.286;;;;
2019/06/29 04:32:28;;;;;;;3;1.8;;;;;;;32.91;25.89648;1006.301;;;;
2019/06/29 04:34:55;;;;;;;3.3;1.6;;;;;;;32.91;25.85938;1006.31;;;;
2019/06/29 04:37:41;;;;;;;2.8;1.9;;;;;;;32.9;25.84668;1006.341;;;;
2019/06/29 04:40:25;;;;;;;3.4;2;;;;;;;32.91;25.82227;1006.373;;;;
2019/06/29 04:43:45;;;;;;;3.1;1.9;;;;;;;32.92;25.78613;1006.339;;;;
2019/06/29 04:46:32;;;;;;;3.1;1.9;;;;;;;32.94;25.71387;1006.331;;;;
2019/06/29 04:48:57;;;;;;;3.8;2;;;;;;;32.96;25.65332;1006.333;;;;
2019/06/29 04:51:33;;;;;;;5.3;2.2;;;;;;;32.97;25.65332;1006.331;;;;
2019/06/29 04:54:15;;;;;;;3.8;2;;;;;;;32.98;25.62891;1006.384;;;;
2019/06/29 04:56:44;;;;;;;3.4;2;;;;;;;32.99;25.58105;1006.369;;;;
2019/06/29 04:59:24;;;;;;;3.6;1.9;;;;;;;33.02;25.55762;1006.369;;;;
2019/06/29 05:02:09;;;;;;;3.7;2;;;;;;;33.03;25.52148;1006.395;;;;
2019/06/29 05:04:39;;;;;;;3.6;2.2;;;;;;;33.05;25.52246;1006.384;;;;
2019/06/29 05:07:19;;;;;;;3.8;2.1;;;;;;;33.08;25.46191;1006.289;;;;
2019/06/29 05:09:49;;;;;;;3.3;1.8;;;;;;;33.09;25.42578;1006.263;;;;
2019/06/29 05:12:39;;;;;;;3.3;1.9;;;;;;;33.1;25.42676;1006.244;;;;
2019/06/29 05:15:10;;;;;;;4.7;1.9;;;;;;;33.14;25.3916;1006.242;;;;
2019/06/29 05:17:46;;;;;;;2.8;1.8;;;;;;;33.15;25.34277;1006.218;;;;
2019/06/29 05:20:25;;;;;;;2.6;1.8;;;;;;;33.18;25.2959;1006.23;;;;
2019/06/29 05:22:54;;;;;;;4.2;1.7;;;;;;;33.21;25.27246;1006.241;;;;
2019/06/29 05:25:28;;;;;;;3.5;2.1;;;;;;;33.23;25.24902;1006.209;;;;
2019/06/29 05:28:05;;;;;;;4.4;1.9;;;;;;;33.25;25.21289;1006.174;;;;
2019/06/29 05:30:31;;;;;;;2.9;1.9;;;;;;;33.28;25.20215;1006.19;;;;
2019/06/29 05:33:01;;;;;;;4.8;2.1;;;;;;;33.29;25.19043;1006.172;;;;
2019/06/29 05:35:45;;;;;;;5.2;2;;;;;;;33.33;25.15527;1006.135;;;;
2019/06/29 05:38:14;;;;;;;4.9;1.9;;;;;;;33.35;25.14453;1006.175;;;;
2019/06/29 05:40:42;;;;;;;4;1.7;;;;;;;33.39;25.12207;1006.16;;;;
2019/06/29 05:43:15;;;;;;;4.1;1.9;;;;;;;33.41;25.09863;1006.168;;;;
2019/06/29 05:45:50;;;;;;;2.1;1.7;;;;;;;33.46;25.03906;1006.182;;;;
2019/06/29 05:48:19;;;;;;;3.6;2.1;;;;;;;33.49;25.05371;1006.156;;;;
2019/06/29 05:50:44;;;;;;;3.8;1.8;;;;;;;33.52;25.00488;1006.108;;;;
2019/06/29 05:53:24;;;;;;;4.1;2.1;;;;;;;33.54;24.98242;1006.096;;;;
2019/06/29 05:55:57;;;;;;;3.2;2;;;;;;;33.58;24.93457;1006.047;;;;
2019/06/29 05:58:24;;;;;;;3.5;2;;;;;;;33.62;24.91211;1006.041;;;;
2019/06/29 06:01:00;;;;;;;4.4;2.4;;;;;;;33.64;24.87598;1006.012;;;;
2019/06/29 06:03:38;;;;;;;4.4;1.7;;;;;;;33.65;24.87695;1006.027;;;;
2019/06/29 06:06:15;;;;;;;5.5;2;;;;;;;33.65;24.88965;1005.985;;;;
2019/06/29 06:09:01;;;;;;;2.9;1.9;;;;;;;33.7;24.84277;1006.038;;;;
2019/06/29 06:11:29;;;;;;;5;2.3;;;;;;;33.69;24.86719;1005.991;;;;
2019/06/29 06:13:59;;;;;;;2.8;1.8;;;;;;;33.73;24.83203;1006.054;;;;
2019/06/29 06:16:39;;;;;;;3.4;2.1;;;;;;;33.74;24.84473;1006.045;;;;
2019/06/29 06:19:19;;;;;;;3.2;1.8;;;;;;;33.76;24.83398;1006.043;;;;
2019/06/29 06:21:48;;;;;;;3.7;1.9;;;;;;;33.76;24.8584;1006.065;;;;
2019/06/29 06:24:21;;;;;;;5.2;2.1;;;;;;;33.78;24.84668;1006.037;;;;
2019/06/29 06:26:53;;;;;;;4.4;2;;;;;;;33.79;24.87207;1006.008;;;;
2019/06/29 06:29:27;;;;;;;3.1;2;;;;;;;33.8;24.91016;1006.059;;;;
2019/06/29 06:31:59;;;;;;;3;1.9;;;;;;;33.82;24.89844;1006.08;;;;
2019/06/29 06:34:29;;;;;;;3.5;2.2;;;;;;;33.83;24.89941;1006.081;;;;
2019/06/29 06:37:09;;;;;;;5.8;2.1;;;;;;;33.84;24.93652;1006.081;;;;
2019/06/29 06:39:35;;;;;;;3.1;2.2;;;;;;;33.83;24.98633;1006.055;;;;
2019/06/29 06:42:24;;;;;;;3.3;1.8;;;;;;;33.84;24.98633;1006.027;;;;
2019/06/29 06:45:06;;;;;;;3.6;2;;;;;;;33.84;25.03613;1006.087;;;;
2019/06/29 06:47:47;;;;;;;3.1;1.9;;;;;;;33.87;24.98828;1006.053;;;;
2019/06/29 06:50:27;;;;;;;4.9;2.3;;;;;;;33.86;25.06152;1006.076;;;;
2019/06/29 06:53:02;;;;;;;3.9;2.1;;;;;;;33.87;25.11133;1006.083;;;;
2019/06/29 06:55:27;;;;;;;5;2.1;;;;;;;33.89;25.05078;1006.108;;;;
2019/06/29 06:58:12;;;;;;;6;2;;;;;;;33.92;25.06445;1006.122;;;;
2019/06/29 07:00:49;;;;;;;2.8;1.9;;;;;;;33.92;25.08984;1006.146;;;;
2019/06/29 07:03:28;;;;;;;4.6;2.1;;;;;;;33.93;25.12695;1006.139;;;;
2019/06/29 07:06:08;;;;;;;3.7;2.2;;;;;;;33.95;25.12793;1006.173;;;;
2019/06/29 07:08:56;;;;;;;5.1;2.2;;;;;;;33.95;25.12793;1006.109;;;;
2019/06/29 07:11:26;;;;;;;5.8;2.1;;;;;;;33.96;25.15332;1006.112;;;;
2019/06/29 07:14:06;;;;;;;4;2;;;;;;;33.97;25.16602;1006.118;;;;
2019/06/29 07:16:41;;;;;;;5.4;2.2;;;;;;;33.97;25.2041;1006.122;;;;
2019/06/29 07:19:07;;;;;;;4.1;2.1;;;;;;;33.98;25.22852;1006.106;;;;
2019/06/29 07:21:38;;;;;;;3.7;2.1;;;;;;;33.98;25.25293;1006.092;;;;
2019/06/29 07:24:24;;;;;;;3.5;2;;;;;;;33.99;25.25293;1006.06;;;;
2019/06/29 07:27:03;;;;;;;4;2;;;;;;;34;25.2793;1005.995;;;;
2019/06/29 07:29:29;;;;;;;7.2;2.3;;;;;;;33.99;25.31641;1006;;;;
2019/06/29 07:32:05;;;;;;;3.9;2.1;;;;;;;34.01;25.31738;1006.005;;;;
2019/06/29 07:34:37;;;;;;;2.9;1.9;;;;;;;34.02;25.31738;1006.022;;;;
2019/06/29 07:37:05;;;;;;;3.1;2;;;;;;;34.04;25.35547;1006.013;;;;
2019/06/29 07:39:39;;;;;;;4.6;2.1;;;;;;;34.05;25.39355;1005.965;;;;
2019/06/29 07:42:24;;;;;;;4.3;1.9;;;;;;;34.06;25.39453;1005.967;;;;
2019/06/29 07:45:05;;;;;;;3.4;2.3;;;;;;;34.08;25.39453;1005.946;;;;
2019/06/29 07:47:34;;;;;;;4.8;2.1;;;;;;;34.09;25.43262;1005.917;;;;
2019/06/29 07:50:13;;;;;;;4.8;2.1;;;;;;;34.1;25.43262;1005.891;;;;
2019/06/29 07:52:45;;;;;;;4.8;2.1;;;;;;;34.11;25.44629;1005.867;;;;
2019/06/29 07:55:22;;;;;;;4.8;2;;;;;;;34.13;25.45898;1005.862;;;;
2019/06/29 07:57:58;;;;;;;5.1;2.3;;;;;;;34.14;25.47266;1005.872;;;;
2019/06/29 08:00:41;;;;;;;4.5;2.3;;;;;;;34.17;25.46094;1005.858;;;;
2019/06/29 08:03:28;;;;;;;3.1;2.4;;;;;;;34.17;25.46191;1005.85;;;;
2019/06/29 08:06:05;;;;;;;3.9;2.3;;;;;;;34.19;25.46289;1005.833;;;;
2019/06/29 08:08:39;;;;;;;6.1;2.4;;;;;;;34.2;25.45117;1005.816;;;;
2019/06/29 08:11:23;;;;;;;4.3;2.5;;;;;;;34.21;25.46387;1005.792;;;;
2019/06/29 08:14:13;;;;;;;4.4;2.2;;;;;;;34.23;25.44043;1005.831;;;;
2019/06/29 08:16:38;;;;;;;3.9;2.2;;;;;;;34.24;25.44141;1005.92;;;;
2019/06/29 08:19:10;;;;;;;3.5;2;;;;;;;34.25;25.41602;1005.86;;;;
2019/06/29 08:21:54;;;;;;;3.7;1.8;;;;;;;34.26;25.42969;1005.864;;;;
2019/06/29 08:24:29;;;;;;;4.2;2.3;;;;;;;34.26;25.4668;1005.81;;;;
2019/06/29 08:26:56;;;;;;;5;2.5;;;;;;;34.29;25.45605;1005.778;;;;
2019/06/29 08:29:26;;;;;;;4.7;2.2;;;;;;;34.29;25.46875;1005.813;;;;
2019/06/29 08:32:04;;;;;;;3.6;2.1;;;;;;;34.3;25.45605;1005.798;;;;
2019/06/29 08:34:36;;;;;;;5.1;2.5;;;;;;;34.3;25.46875;1005.744;;;;
2019/06/29 08:37:08;;;;;;;4.4;2.5;;;;;;;34.3;25.50586;1005.774;;;;
2019/06/29 08:39:38;;;;;;;3.9;2.2;;;;;;;34.29;25.53027;1005.78;;;;
2019/06/29 08:42:05;;;;;;;3.8;2.2;;;;;;;34.29;25.5791;1005.759;;;;
2019/06/29 08:44:45;;;;;;;4.3;2.5;;;;;;;34.3;25.60547;1005.723;;;;
2019/06/29 08:47:12;;;;;;;4.3;2.2;;;;;;;34.3;25.59277;1005.715;;;;
2019/06/29 08:49:47;;;;;;;3.3;2.3;;;;;;;34.3;25.61719;1005.709;;;;
2019/06/29 08:52:24;;;;;;;4.1;2.2;;;;;;;34.31;25.63086;1005.696;;;;
2019/06/29 08:55:14;;;;;;;4.6;2.5;;;;;;;34.31;25.6543;1005.66;;;;
2019/06/29 08:57:52;;;;;;;3.9;2.4;;;;;;;34.3;25.69141;1005.699;;;;
2019/06/29 09:00:28;;;;;;;6;2.3;;;;;;;34.3;25.75293;1005.676;;;;
2019/06/29 09:03:06;;;;;;;4.8;2.6;;;;;;;34.31;25.75391;1005.67;;;;
2019/06/29 09:05:42;;;;;;;3.6;2.3;;;;;;;34.31;25.72949;1005.712;;;;
2019/06/29 09:08:27;;;;;;;5.3;2.6;;;;;;;34.3;25.83984;1005.691;;;;
2019/06/29 09:11:02;;;;;;;5;2.2;;;;;;;34.31;25.81543;1005.65;;;;
2019/06/29 09:13:45;;;;;;;4.4;2.2;;;;;;;34.31;25.84082;1005.661;;;;
2019/06/29 09:16:28;;;;;;;4.9;2.2;;;;;;;34.29;25.87695;1005.643;;;;
2019/06/29 09:19:03;;;;;;;3.8;2.2;;;;;;;34.3;25.90234;1005.66;;;;
2019/06/29 09:21:39;;;;;;;5.3;2.1;;;;;;;34.31;25.88965;1005.653;;;;
2019/06/29 09:24:14;;;;;;;5.7;2.3;;;;;;;34.32;25.91504;1005.645;;;;
2019/06/29 09:26:51;;;;;;;5;2.4;;;;;;;34.33;25.91602;1005.654;;;;
2019/06/29 09:29:30;;;;;;;5;2.2;;;;;;;34.33;25.9043;1005.632;;;;
2019/06/29 09:32:17;;;;;;;3.9;2.5;;;;;;;34.34;25.9043;1005.565;;;;
2019/06/29 09:34:49;;;;;;;6.6;2.3;;;;;;;34.34;25.9043;1005.511;;;;
2019/06/29 09:37:20;;;;;;;5.6;2.3;;;;;;;34.32;25.94043;1005.509;;;;
2019/06/29 09:40:01;;;;;;;3.1;2.3;;;;;;;34.33;25.91602;1005.506;;;;
2019/06/29 09:42:32;;;;;;;4.9;2.3;;;;;;;34.34;25.91602;1005.516;;;;
2019/06/29 09:45:24;;;;;;;3.1;2.4;;;;;;;34.33;25.90332;1005.485;;;;
2019/06/29 09:47:50;;;;;;;4.2;2;;;;;;;34.32;25.90332;1005.411;;;;
2019/06/29 09:50:19;;;;;;;4.1;2.3;;;;;;;34.33;25.85352;1005.412;;;;
2019/06/29 09:52:54;;;;;;;3.6;2.2;;;;;;;34.32;25.84082;1005.421;;;;
2019/06/29 09:55:27;;;;;;;5.3;2.2;;;;;;;34.33;25.8291;1005.401;;;;
2019/06/29 09:58:08;;;;;;;4.9;2.1;;;;;;;34.34;25.8418;1005.406;;;;
2019/06/29 10:00:54;;;;;;;6.1;2.3;;;;;;;34.34;25.8418;1005.368;;;;
2019/06/29 10:03:46;;;;;;;4.9;2.4;;;;;;;34.33;25.81641;1005.407;;;;
2019/06/29 10:06:20;;;;;;;5.7;2.4;;;;;;;34.32;25.75488;1005.321;;;;
2019/06/29 10:08:45;;;;;;;7.1;2.5;;;;;;;34.33;25.75488;1005.289;;;;
2019/06/29 10:11:23;;;;;;;3.6;2;;;;;;;34.34;25.71875;1005.292;;;;
2019/06/29 10:13:54;;;;;;;4.1;2.3;;;;;;;34.33;25.76758;1005.278;;;;
2019/06/29 10:16:27;;;;;;;4;2.4;;;;;;;34.32;25.81641;1005.331;;;;
2019/06/29 10:19:09;;;;;;;4.1;2.3;;;;;;;34.32;25.7666;1005.27;;;;
2019/06/29 10:21:51;;;;;;;4.8;2.5;;;;;;;34.32;25.64355;1005.251;;;;
2019/06/29 10:24:25;;;;;;;3.7;2.2;;;;;;;34.32;25.55664;1005.261;;;;
2019/06/29 10:27:09;;;;;;;3;2;;;;;;;34.31;25.44531;1005.242;;;;
2019/06/29 10:29:48;;;;;;;5.5;2.3;;;;;;;34.3;25.20996;1005.239;;;;
2019/06/29 10:32:19;;;;;;;5.7;2.3;;;;;;;34.3;25.13477;1005.201;;;;
2019/06/29 10:32:44;;;;;;;3.4;2.2;;;;;;;34.29;25.13477;1005.176;;;;
2019/06/29 10:35:12;;;;;;;3.9;2.1;;;;;;;34.3;24.83789;1005.16;;;;
2019/06/29 10:37:54;;;;;;;4.8;2.4;;;;;;;34.28;24.8252;1005.149;;;;
2019/06/29 10:40:36;;;;;;;5.5;2.2;;;;;;;34.27;24.81152;1005.141;;;;
2019/06/29 10:43:17;;;;;;;5.4;2.1;;;;;;;34.26;24.6875;1005.092;;;;
2019/06/29 10:46:05;;;;;;;5;2.6;;;;;;;34.25;24.5752;1005.135;;;;
2019/06/29 10:48:42;;;;;;;4.3;2.1;;;;;;;34.23;24.55078;1005.086;;;;
2019/06/29 10:51:14;;;;;;;3.2;2;;;;;;;34.23;24.32715;1004.996;;;;
2019/06/29 10:53:40;;;;;;;3.5;2.2;;;;;;;34.23;24.36426;1005.003;;;;
2019/06/29 10:56:27;;;;;;;5.7;2.2;;;;;;;34.21;24.19141;1004.992;;;;
2019/06/29 10:59:11;;;;;;;3.2;2.3;;;;;;;34.21;24.16602;1004.962;;;;
2019/06/29 11:01:37;;;;;;;5.6;1.9;;;;;;;34.19;24.07813;1004.978;;;;
2019/06/29 11:04:17;;;;;;;3.4;2;;;;;;;34.19;24.06641;1005.008;;;;
2019/06/29 11:06:55;;;;;;;4.2;2.1;;;;;;;34.17;23.92871;1004.928;;;;
2019/06/29 11:09:26;;;;;;;4.8;1.9;;;;;;;34.18;23.65723;1004.899;;;;
2019/06/29 11:11:57;;;;;;;5.5;2.1;;;;;;;34.17;23.68164;1004.866;;;;
2019/06/29 11:14:49;;;;;;;5;1.9;;;;;;;34.18;23.63281;1004.846;;;;
2019/06/29 11:17:35;;;;;;;2.4;1.9;;;;;;;34.18;23.45898;1004.814;;;;
2019/06/29 11:20:14;;;;;;;3.3;2.1;;;;;;;34.16;23.39648;1004.82;;;;
2019/06/29 11:22:59;;;;;;;3.4;2.1;;;;;;;34.15;23.39648;1004.782;;;;
2019/06/29 11:25:49;;;;;;;5.4;2.1;;;;;;;34.14;23.22363;1004.724;;;;
2019/06/29 11:28:16;;;;;;;3.3;1.9;;;;;;;34.14;23.19824;1004.69;;;;
2019/06/29 11:30:54;;;;;;;2.3;1.8;;;;;;;34.14;23.12402;1004.726;;;;
2019/06/29 11:33:39;;;;;;;2.5;1.7;;;;;;;34.13;23.03711;1004.701;;;;
2019/06/29 11:36:15;;;;;;;3.4;2.2;;;;;;;34.13;23.03711;1004.658;;;;
2019/06/29 11:38:45;;;;;;;3.7;2.2;;;;;;;34.14;22.82715;1004.622;;;;
2019/06/29 11:41:12;;;;;;;2.6;1.8;;;;;;;34.15;22.80273;1004.586;;;;
2019/06/29 11:43:41;;;;;;;3.9;1.9;;;;;;;34.14;22.75391;1004.614;;;;
2019/06/29 11:46:14;;;;;;;2.9;1.9;;;;;;;34.14;22.77832;1004.52;;;;
2019/06/29 11:48:54;;;;;;;3.6;2;;;;;;;34.14;22.79004;1004.548;;;;
2019/06/29 11:51:35;;;;;;;3.4;2.2;;;;;;;34.14;22.72852;1004.542;;;;
2019/06/29 11:54:13;;;;;;;2.9;1.9;;;;;;;34.13;22.75293;1004.537;;;;
2019/06/29 11:56:46;;;;;;;4.5;1.8;;;;;;;34.12;22.78906;1004.49;;;;
2019/06/29 11:59:29;;;;;;;3.3;1.8;;;;;;;34.14;22.81543;1004.471;;;;
2019/06/29 12:01:58;;;;;;;5.6;2.1;;;;;;;34.12;22.81445;1004.45;;;;
2019/06/29 12:04:39;;;;;;;4.6;1.9;;;;;;;34.12;22.86328;1004.42;;;;
2019/06/29 12:07:13;;;;;;;4.6;1.9;;;;;;;34.11;22.8877;1004.401;;;;
2019/06/29 12:09:52;;;;;;;4.3;2;;;;;;;34.11;22.94922;1004.448;;;;
2019/06/29 12:12:27;;;;;;;3;1.8;;;;;;;34.12;22.96191;1004.402;;;;
2019/06/29 12:14:59;;;;;;;4.6;2;;;;;;;34.1;23.02344;1004.387;;;;
2019/06/29 12:17:37;;;;;;;4.5;2.1;;;;;;;34.11;23.34473;1004.352;;;;
2019/06/29 12:21:06;;;;;;;6.1;2;;;;;;;34.12;23.23438;1004.356;;;;
2019/06/29 12:23:31;;;;;;;3;1.7;;;;;;;34.11;23.25879;1004.311;;;;
2019/06/29 12:26:01;;;;;;;2.3;1.8;;;;;;;34.11;23.27148;1004.301;;;;
2019/06/29 12:28:34;;;;;;;5.3;1.8;;;;;;;34.12;23.08594;1004.265;;;;
2019/06/29 12:31:16;;;;;;;3.2;1.9;;;;;;;34.12;23.09863;1004.272;;;;
2019/06/29 12:34:03;;;;;;;2.4;1.9;;;;;;;34.12;23.11035;1004.255;;;;
2019/06/29 12:36:38;;;;;;;5.1;1.9;;;;;;;34.11;23.08594;1004.219;;;;
2019/06/29 12:39:23;;;;;;;3.4;2;;;;;;;34.12;23.08594;1004.245;;;;
2019/06/29 12:41:54;;;;;;;3.8;1.9;;;;;;;34.11;23.04883;1004.183;;;;
2019/06/29 12:44:23;;;;;;;3.2;1.7;;;;;;;34.11;22.99902;1004.227;;;;
2019/06/29 12:47:03;;;;;;;4.4;2;;;;;;;34.11;22.71484;1004.212;;;;
2019/06/29 12:49:29;;;;;;;3.2;1.9;;;;;;;34.11;22.66602;1004.244;;;;
2019/06/29 12:51:57;;;;;;;4.3;2.1;;;;;;;34.13;22.6416;1004.146;;;;
2019/06/29 12:54:21;;;;;;;3;2.1;;;;;;;34.14;22.61719;1004.149;;;;
2019/06/29 12:57:11;;;;;;;5.8;2.2;;;;;;;34.13;22.62891;1004.065;;;;
2019/06/29 12:59:44;;;;;;;2.4;2.1;;;;;;;34.13;22.53027;1004.056;;;;
2019/06/29 13:02:10;;;;;;;3.5;1.9;;;;;;;34.14;22.54297;1004.027;;;;
2019/06/29 13:04:41;;;;;;;3.9;2.2;;;;;;;34.15;22.41992;1004.006;;;;
2019/06/29 13:07:29;;;;;;;3.4;2;;;;;;;34.13;22.44336;1003.985;;;;
2019/06/29 13:10:13;;;;;;;3.9;1.9;;;;;;;34.13;22.50586;1003.981;;;;
2019/06/29 13:12:46;;;;;;;3.4;2.1;;;;;;;34.13;22.61719;1003.962;;;;
2019/06/29 13:15:32;;;;;;;3.9;2;;;;;;;34.14;22.7041;1003.947;;;;
2019/06/29 13:18:16;;;;;;;3.2;2.2;;;;;;;34.15;22.82813;1003.861;;;;
2019/06/29 13:20:57;;;;;;;4;1.9;;;;;;;34.17;22.98926;1003.837;;;;
2019/06/29 13:23:22;;;;;;;2.7;2;;;;;;;34.18;23.00293;1003.8;;;;
2019/06/29 13:26:07;;;;;;;6.2;2;;;;;;;34.18;23.07715;1003.78;;;;
2019/06/29 13:28:31;;;;;;;3;2.3;;;;;;;34.18;23.12598;1003.722;;;;
2019/06/29 13:31:17;;;;;;;2.9;2.1;;;;;;;34.17;23.1377;1003.72;;;;
2019/06/29 13:33:43;;;;;;;3.8;2.2;;;;;;;34.18;23.10059;1003.682;;;;
2019/06/29 13:36:14;;;;;;;3.9;2.2;;;;;;;34.2;23.06543;1003.651;;;;
2019/06/29 13:38:47;;;;;;;3.9;2.2;;;;;;;34.19;23.10156;1003.618;;;;
2019/06/29 13:41:30;;;;;;;3;2.1;;;;;;;34.18;23.16309;1003.623;;;;
2019/06/29 13:44:05;;;;;;;4.3;2.1;;;;;;;34.18;23.22461;1003.566;;;;
2019/06/29 13:46:43;;;;;;;3.1;2.2;;;;;;;34.19;23.25;1003.495;;;;
2019/06/29 13:49:20;;;;;;;2.5;2.1;;;;;;;34.19;23.3252;1003.47;;;;
2019/06/29 13:51:59;;;;;;;2.9;2.3;;;;;;;34.2;23.3623;1003.501;;;;
2019/06/29 13:54:37;;;;;;;4.2;2;;;;;;;34.2;23.38672;1003.546;;;;
2019/06/29 13:57:17;;;;;;;3.2;2.3;;;;;;;34.19;23.39844;1003.494;;;;
2019/06/29 13:59:42;;;;;;;3.7;2.6;;;;;;;34.19;23.32422;1003.488;;;;
2019/06/29 14:02:20;;;;;;;8.7;2.1;;;;;;;34.19;23.28711;1003.415;;;;
2019/06/29 14:05:06;;;;;;;4.1;2.3;;;;;;;34.19;23.28711;1003.433;;;;
2019/06/29 14:07:50;;;;;;;4.5;2.3;;;;;;;34.21;23.17676;1003.418;;;;
2019/06/29 14:10:33;;;;;;;3;2.1;;;;;;;34.2;23.00391;1003.352;;;;
2019/06/29 14:12:59;;;;;;;5.8;2.1;;;;;;;34.2;22.92969;1003.372;;;;
2019/06/29 14:15:26;;;;;;;3.5;2.2;;;;;;;34.2;22.80566;1003.333;;;;
2019/06/29 14:18:09;;;;;;;5.8;2.2;;;;;;;34.2;22.85547;1003.322;;;;
2019/06/29 14:20:47;;;;;;;4;2.2;;;;;;;34.21;22.89258;1003.335;;;;
2019/06/29 14:23:31;;;;;;;5.6;2.3;;;;;;;34.21;22.9668;1003.32;;;;
2019/06/29 14:26:16;;;;;;;3.2;1.9;;;;;;;34.23;22.96777;1003.308;;;;
2019/06/29 14:28:54;;;;;;;2.3;2;;;;;;;34.22;22.83105;1003.311;;;;
2019/06/29 14:31:39;;;;;;;2.8;2;;;;;;;34.23;22.6709;1003.261;;;;
2019/06/29 14:34:10;;;;;;;3.7;2;;;;;;;34.24;22.65918;1003.279;;;;
2019/06/29 14:36:37;;;;;;;3;2.1;;;;;;;34.23;22.58496;1003.287;;;;
2019/06/29 14:39:06;;;;;;;3.9;2.1;;;;;;;34.23;22.54785;1003.272;;;;
2019/06/29 14:41:37;;;;;;;2.8;2;;;;;;;34.24;22.47363;1003.19;;;;
2019/06/29 14:44:23;;;;;;;3.2;2.1;;;;;;;34.23;22.44922;1003.184;;;;
2019/06/29 14:46:55;;;;;;;2.8;1.8;;;;;;;34.23;22.3125;1003.174;;;;
2019/06/29 14:49:24;;;;;;;3.5;1.9;;;;;;;34.23;22.20215;1003.13;;;;
2019/06/29 14:52:12;;;;;;;3;2.1;;;;;;;34.24;21.99121;1003.109;;;;
2019/06/29 14:54:56;;;;;;;3.4;2;;;;;;;34.23;21.94238;1003.073;;;;
2019/06/29 14:57:42;;;;;;;4.5;2;;;;;;;34.22;21.9043;1003.029;;;;
2019/06/29 15:00:13;;;;;;;3.2;2;;;;;;;34.23;21.84277;1003.127;;;;
2019/06/29 15:02:48;;;;;;;2.8;1.9;;;;;;;34.22;21.73145;1003.078;;;;
2019/06/29 15:06:16;;;;;;;3;1.8;;;;;;;34.22;21.63281;1003.016;;;;
2019/06/29 15:08:44;;;;;;;3.1;2;;;;;;;34.24;21.57129;1002.93;;;;
2019/06/29 15:11:17;;;;;;;4;2;;;;;;;34.24;21.52246;1002.922;;;;
2019/06/29 15:13:54;;;;;;;2.3;1.8;;;;;;;34.25;21.34961;1002.886;;;;
2019/06/29 15:16:29;;;;;;;2.3;1.8;;;;;;;34.26;21.3252;1002.85;;;;
2019/06/29 15:18:59;;;;;;;5.1;1.8;;;;;;;34.26;21.25098;1002.826;;;;
2019/06/29 15:21:35;;;;;;;3.6;1.7;;;;;;;34.25;21.08984;1002.809;;;;